Imperial, NE

12:23 PM MDT on July 29, 2014 (GMT -0600)
Imperial Municipal (KIML) Elev 3274 ft | 40.51 °N, 101.62 °W | Change Station

Current weather conditions updated 30 minutes ago

Mostly Cloudy
Mostly Cloudy
76 °F
Feels Like 76 °F
N
8
Wind Variable Wind from ESE

Today is forecast to be Much Cooler than yesterday. Showers and thunderstorms late tonight.

Today
High -- | Low -- °F
--% Chance of Precip.
Yesterday
High -- | Low -- °F
Precip. -- in
5:40 AM 8:04 PM
Waxing Crescent, 7% visible
Pressure 30.14 in
Visibility 10.0 miles
Clouds Few 3300 ft
Mostly Cloudy 4100 ft
Dew Point 60 °F
Humidity 58%
Rainfall 0.00 in
Snow Depth Not available.
UV 6 out of 12
Pollen 7.40 out of 12
Air Quality Not available.
Flu Activity Not available.
METAR KIML 291753Z AUTO 11007KT 10SM FEW033 BKN041 24/16 A3022 RMK AO2 SLP206 T02440156 10244 20144 58007

More Conditions Fewer Conditions

Pressure 30.14 in
Visibility 10.0 miles
Clouds Few 3300 ft
Mostly Cloudy 4100 ft
Dew Point 60 °F
Humidity 58%
Rainfall 0.00 in
Snow Depth Not available.
UV 6 out of 12
Pollen 7.40 out of 12
Air Quality Not available.
Flu Activity Not available.
METAR KIML 291753Z AUTO 11007KT 10SM FEW033 BKN041 24/16 A3022 RMK AO2 SLP206 T02440156 10244 20144 58007

More Conditions Fewer Conditions

10-Day Weather Forecast

Almanac

Astronomy

Jul. 29, 2014 Rise Set
Actual Time 5:40 AM MDT 8:04 PM MDT
Civil Twilight 5:09 AM MDT 8:35 PM MDT
Nautical Twilight 4:31 AM MDT 9:13 PM MDT
Astronomical Twilight 3:49 AM MDT 9:55 PM MDT
Moon 8:20 AM MDT 9:16 PM MDT
Length of Visible Light 15h 25m
Length of Day
14h 23m
Tomorrow will be 1m 56s shorter.
Waxing Crescent, 7% of the Moon is Illuminated
Today
Waxing Crescent
Aug 3
First Quarter
Aug 10
Full
Aug 17
Last Quarter
Aug 25
New

Today's Extremes

State Highs State Lows

Community

WunderPhotos

Upload Photos

1,738,813 photos uploaded!

WunderBlogs® & News

By Dr. Jeff Masters
Director of Meteorology, Weather Underground
By Kari Strenfel
Meteorologist, Weather Underground
By Christopher C. Burt
Weather Historian, Weather Underground
July 29, 2014
July 29, 2014
July 29, 2014

Nearby

Snow Depth

Station Depth Elevation
No new snow has been reported.

Earthquake Activity

City Distance Mag. Time & Date
No recent earthquake activity has been reported nearby.
Minimum magnitude displayed is 2.5.

Coastal Water Temperatures

Place Temperature
No Stations Reporting

Nearby Weather Stations

Station Location Temp. Dew Point Humidity Wind Precip. Elev Updated Type
MesoWest JOHNSON FARM , Champion, NE 70 °F 63 °F 77% ESE  at  5 mph 0.00 in / hr 3340 ft 10:00 AM MDT MADIS

Show More Stations Show Fewer Stations